Terminal Aerodrome Forecast
Issued by NWS Jackson, MS

Home | Current Version | Previous Version | Text Only | Print | Product List | Glossary On
Versions: 1 2 3 4 5 6 7 8 9 10 11 12
000
FTUS44 KMEG 251735
TAFTUP
TAF
KTUP 251735Z 2518/2618 06003KT P6SM FEW060
     FM260000 VRB03KT P6SM SKC
     FM261400 36006KT P6SM VCSH BKN050 OVC100=

USA.gov is the U.S. government's official web portal to all federal, state and local government web resources and services.